sensor_id;sensor_type;location;lat;lon;timestamp;P1;durP1;ratioP1;P2;durP2;ratioP2
19149;SDS011;9707;49.158;8.632;2023-04-25T00:00:31;1.55;;;1.45;;
19149;SDS011;9707;49.158;8.632;2023-04-25T00:02:56;1.98;;;1.77;;
19149;SDS011;9707;49.158;8.632;2023-04-25T00:05:21;1.45;;;1.30;;
19149;SDS011;9707;49.158;8.632;2023-04-25T00:07:48;2.03;;;1.50;;
19149;SDS011;9707;49.158;8.632;2023-04-25T00:10:13;2.33;;;1.65;;
19149;SDS011;9707;49.158;8.632;2023-04-25T00:12:39;1.95;;;1.45;;
19149;SDS011;9707;49.158;8.632;2023-04-25T00:15:05;2.38;;;1.88;;
19149;SDS011;9707;49.158;8.632;2023-04-25T00:17:31;1.95;;;1.40;;
19149;SDS011;9707;49.158;8.632;2023-04-25T00:19:56;2.60;;;1.90;;
19149;SDS011;9707;49.158;8.632;2023-04-25T00:22:23;1.80;;;1.58;;
19149;SDS011;9707;49.158;8.632;2023-04-25T00:24:48;1.90;;;1.65;;
19149;SDS011;9707;49.158;8.632;2023-04-25T06:33:11;5.72;;;3.60;;
19149;SDS011;9707;49.158;8.632;2023-04-25T06:35:37;5.05;;;4.10;;
19149;SDS011;9707;49.158;8.632;2023-04-25T06:38:02;4.35;;;3.70;;
19149;SDS011;9707;49.158;8.632;2023-04-25T06:40:27;3.90;;;3.33;;
19149;SDS011;9707;49.158;8.632;2023-04-25T06:42:53;3.90;;;3.50;;
19149;SDS011;9707;49.158;8.632;2023-04-25T06:45:18;5.47;;;3.45;;
19149;SDS011;9707;49.158;8.632;2023-04-25T06:47:43;4.53;;;3.45;;
19149;SDS011;9707;49.158;8.632;2023-04-25T06:50:08;5.00;;;3.90;;
19149;SDS011;9707;49.158;8.632;2023-04-25T06:52:34;4.60;;;3.70;;
19149;SDS011;9707;49.158;8.632;2023-04-25T06:54:59;3.90;;;3.47;;
19149;SDS011;9707;49.158;8.632;2023-04-25T06:57:24;3.15;;;2.85;;
19149;SDS011;9707;49.158;8.632;2023-04-25T06:59:50;4.22;;;3.22;;
19149;SDS011;9707;49.158;8.632;2023-04-25T07:02:15;5.00;;;3.67;;
19149;SDS011;9707;49.158;8.632;2023-04-25T07:04:41;3.45;;;3.15;;
19149;SDS011;9707;49.158;8.632;2023-04-25T07:07:06;5.38;;;3.78;;
19149;SDS011;9707;49.158;8.632;2023-04-25T07:09:31;4.00;;;3.40;;
19149;SDS011;9707;49.158;8.632;2023-04-25T07:11:59;5.22;;;3.63;;
19149;SDS011;9707;49.158;8.632;2023-04-25T07:14:26;4.10;;;3.70;;
19149;SDS011;9707;49.158;8.632;2023-04-25T07:16:51;4.65;;;3.28;;
19149;SDS011;9707;49.158;8.632;2023-04-25T07:19:16;5.80;;;3.47;;
19149;SDS011;9707;49.158;8.632;2023-04-25T07:21:41;4.70;;;4.10;;
19149;SDS011;9707;49.158;8.632;2023-04-25T07:24:07;4.75;;;3.88;;
19149;SDS011;9707;49.158;8.632;2023-04-25T07:26:32;5.32;;;4.70;;
19149;SDS011;9707;49.158;8.632;2023-04-25T07:28:58;4.55;;;3.88;;
19149;SDS011;9707;49.158;8.632;2023-04-25T07:31:23;5.28;;;4.18;;
19149;SDS011;9707;49.158;8.632;2023-04-25T07:33:49;4.60;;;4.20;;
19149;SDS011;9707;49.158;8.632;2023-04-25T07:36:14;8.05;;;4.22;;
19149;SDS011;9707;49.158;8.632;2023-04-25T07:38:40;4.70;;;3.53;;
19149;SDS011;9707;49.158;8.632;2023-04-25T07:41:06;5.93;;;4.35;;
19149;SDS011;9707;49.158;8.632;2023-04-25T07:43:31;5.32;;;4.20;;
19149;SDS011;9707;49.158;8.632;2023-04-25T07:45:57;5.55;;;4.40;;
19149;SDS011;9707;49.158;8.632;2023-04-25T07:48:22;5.18;;;4.38;;
19149;SDS011;9707;49.158;8.632;2023-04-25T07:50:47;5.25;;;4.07;;
19149;SDS011;9707;49.158;8.632;2023-04-25T07:53:13;6.55;;;4.57;;
19149;SDS011;9707;49.158;8.632;2023-04-25T07:55:38;4.93;;;4.22;;
19149;SDS011;9707;49.158;8.632;2023-04-25T07:58:05;5.63;;;4.28;;
19149;SDS011;9707;49.158;8.632;2023-04-25T08:00:31;5.88;;;4.70;;
19149;SDS011;9707;49.158;8.632;2023-04-25T08:02:56;5.88;;;4.70;;
19149;SDS011;9707;49.158;8.632;2023-04-25T08:05:21;6.75;;;4.30;;
19149;SDS011;9707;49.158;8.632;2023-04-25T08:07:46;3.80;;;3.42;;
19149;SDS011;9707;49.158;8.632;2023-04-25T08:10:12;6.32;;;4.30;;
19149;SDS011;9707;49.158;8.632;2023-04-25T08:12:37;5.32;;;4.45;;
19149;SDS011;9707;49.158;8.632;2023-04-25T08:15:03;6.32;;;4.55;;
19149;SDS011;9707;49.158;8.632;2023-04-25T08:17:30;4.43;;;3.95;;
19149;SDS011;9707;49.158;8.632;2023-04-25T08:19:55;7.07;;;4.95;;
19149;SDS011;9707;49.158;8.632;2023-04-25T08:22:21;3.85;;;3.38;;
19149;SDS011;9707;49.158;8.632;2023-04-25T08:24:47;7.28;;;5.13;;
19149;SDS011;9707;49.158;8.632;2023-04-25T08:27:12;10.48;;;5.88;;
19149;SDS011;9707;49.158;8.632;2023-04-25T08:29:37;7.85;;;5.53;;
19149;SDS011;9707;49.158;8.632;2023-04-25T08:32:03;7.32;;;5.43;;
19149;SDS011;9707;49.158;8.632;2023-04-25T08:34:28;8.00;;;5.72;;
19149;SDS011;9707;49.158;8.632;2023-04-25T08:36:53;7.60;;;4.55;;
19149;SDS011;9707;49.158;8.632;2023-04-25T08:39:19;8.60;;;5.53;;
19149;SDS011;9707;49.158;8.632;2023-04-25T08:41:45;9.75;;;5.57;;
19149;SDS011;9707;49.158;8.632;2023-04-25T08:44:11;9.05;;;4.82;;
19149;SDS011;9707;49.158;8.632;2023-04-25T08:46:40;7.97;;;4.35;;
19149;SDS011;9707;49.158;8.632;2023-04-25T08:49:06;7.75;;;4.72;;
19149;SDS011;9707;49.158;8.632;2023-04-25T08:51:32;7.05;;;3.83;;
19149;SDS011;9707;49.158;8.632;2023-04-25T08:54:08;7.88;;;4.53;;
19149;SDS011;9707;49.158;8.632;2023-04-25T08:56:35;5.78;;;3.30;;
19149;SDS011;9707;49.158;8.632;2023-04-25T08:59:02;6.80;;;3.75;;
19149;SDS011;9707;49.158;8.632;2023-04-25T09:01:27;5.15;;;2.80;;
19149;SDS011;9707;49.158;8.632;2023-04-25T09:03:53;8.75;;;3.95;;
19149;SDS011;9707;49.158;8.632;2023-04-25T09:06:19;8.70;;;3.25;;
19149;SDS011;9707;49.158;8.632;2023-04-25T09:08:44;7.47;;;3.53;;
19149;SDS011;9707;49.158;8.632;2023-04-25T09:11:09;7.90;;;3.92;;
19149;SDS011;9707;49.158;8.632;2023-04-25T09:13:35;12.10;;;4.60;;
19149;SDS011;9707;49.158;8.632;2023-04-25T09:16:00;6.78;;;3.72;;
19149;SDS011;9707;49.158;8.632;2023-04-25T09:18:30;9.15;;;3.97;;
19149;SDS011;9707;49.158;8.632;2023-04-25T09:21:06;9.23;;;3.95;;
19149;SDS011;9707;49.158;8.632;2023-04-25T09:23:48;7.65;;;4.05;;
19149;SDS011;9707;49.158;8.632;2023-04-25T09:26:18;7.30;;;4.30;;
19149;SDS011;9707;49.158;8.632;2023-04-25T09:28:44;9.10;;;4.75;;
19149;SDS011;9707;49.158;8.632;2023-04-25T09:31:11;7.78;;;4.25;;
19149;SDS011;9707;49.158;8.632;2023-04-25T09:33:36;8.85;;;3.75;;
19149;SDS011;9707;49.158;8.632;2023-04-25T09:36:06;7.32;;;3.65;;
19149;SDS011;9707;49.158;8.632;2023-04-25T09:38:45;7.93;;;3.92;;
19149;SDS011;9707;49.158;8.632;2023-04-25T09:41:11;5.60;;;3.35;;
19149;SDS011;9707;49.158;8.632;2023-04-25T09:43:37;7.05;;;3.95;;
19149;SDS011;9707;49.158;8.632;2023-04-25T09:46:04;6.38;;;3.92;;
19149;SDS011;9707;49.158;8.632;2023-04-25T09:48:33;6.32;;;3.90;;
19149;SDS011;9707;49.158;8.632;2023-04-25T09:53:34;8.07;;;4.22;;
19149;SDS011;9707;49.158;8.632;2023-04-25T09:56:03;9.05;;;5.03;;
19149;SDS011;9707;49.158;8.632;2023-04-25T09:58:30;6.78;;;4.47;;
19149;SDS011;9707;49.158;8.632;2023-04-25T10:00:58;7.78;;;3.97;;
19149;SDS011;9707;49.158;8.632;2023-04-25T10:03:26;9.75;;;4.43;;
19149;SDS011;9707;49.158;8.632;2023-04-25T10:05:51;10.88;;;4.60;;
19149;SDS011;9707;49.158;8.632;2023-04-25T10:08:18;7.88;;;4.10;;
19149;SDS011;9707;49.158;8.632;2023-04-25T10:10:45;6.38;;;4.03;;
19149;SDS011;9707;49.158;8.632;2023-04-25T10:13:11;10.18;;;4.35;;
19149;SDS011;9707;49.158;8.632;2023-04-25T10:15:39;9.43;;;5.15;;
19149;SDS011;9707;49.158;8.632;2023-04-25T10:18:06;13.18;;;5.47;;
19149;SDS011;9707;49.158;8.632;2023-04-25T10:20:32;8.82;;;4.70;;
19149;SDS011;9707;49.158;8.632;2023-04-25T10:22:58;11.20;;;5.50;;
19149;SDS011;9707;49.158;8.632;2023-04-25T10:25:35;8.32;;;4.95;;
19149;SDS011;9707;49.158;8.632;2023-04-25T10:28:00;7.60;;;4.43;;
19149;SDS011;9707;49.158;8.632;2023-04-25T10:30:28;9.10;;;4.90;;
19149;SDS011;9707;49.158;8.632;2023-04-25T10:32:54;10.15;;;4.63;;
19149;SDS011;9707;49.158;8.632;2023-04-25T10:35:38;11.52;;;4.75;;
19149;SDS011;9707;49.158;8.632;2023-04-25T10:38:04;6.68;;;3.75;;
19149;SDS011;9707;49.158;8.632;2023-04-25T10:40:38;8.60;;;4.47;;
19149;SDS011;9707;49.158;8.632;2023-04-25T10:46:12;12.77;;;5.55;;
19149;SDS011;9707;49.158;8.632;2023-04-25T10:49:00;14.07;;;6.10;;
19149;SDS011;9707;49.158;8.632;2023-04-25T10:51:28;10.52;;;6.20;;
19149;SDS011;9707;49.158;8.632;2023-04-25T10:56:20;10.55;;;4.90;;
19149;SDS011;9707;49.158;8.632;2023-04-25T11:06:53;9.00;;;4.85;;
19149;SDS011;9707;49.158;8.632;2023-04-25T11:09:25;8.02;;;4.53;;
19149;SDS011;9707;49.158;8.632;2023-04-25T11:11:54;8.65;;;4.32;;
19149;SDS011;9707;49.158;8.632;2023-04-25T11:14:21;8.55;;;5.35;;
19149;SDS011;9707;49.158;8.632;2023-04-25T11:16:46;10.88;;;4.70;;
19149;SDS011;9707;49.158;8.632;2023-04-25T11:19:12;9.32;;;4.80;;
19149;SDS011;9707;49.158;8.632;2023-04-25T11:21:37;6.90;;;4.13;;
19149;SDS011;9707;49.158;8.632;2023-04-25T11:24:02;6.50;;;4.35;;
19149;SDS011;9707;49.158;8.632;2023-04-25T11:26:29;7.50;;;3.88;;
19149;SDS011;9707;49.158;8.632;2023-04-25T11:28:58;10.05;;;4.38;;
19149;SDS011;9707;49.158;8.632;2023-04-25T11:31:25;11.13;;;4.70;;
19149;SDS011;9707;49.158;8.632;2023-04-25T11:33:52;6.90;;;3.35;;
19149;SDS011;9707;49.158;8.632;2023-04-25T11:36:18;9.10;;;4.00;;
19149;SDS011;9707;49.158;8.632;2023-04-25T11:38:44;7.57;;;4.18;;
19149;SDS011;9707;49.158;8.632;2023-04-25T11:41:10;9.85;;;4.18;;
19149;SDS011;9707;49.158;8.632;2023-04-25T11:43:36;6.60;;;4.35;;
19149;SDS011;9707;49.158;8.632;2023-04-25T11:46:06;7.75;;;4.25;;
19149;SDS011;9707;49.158;8.632;2023-04-25T11:48:39;7.18;;;4.28;;
19149;SDS011;9707;49.158;8.632;2023-04-25T11:51:05;8.07;;;4.70;;
19149;SDS011;9707;49.158;8.632;2023-04-25T11:53:30;9.98;;;5.13;;
19149;SDS011;9707;49.158;8.632;2023-04-25T11:55:55;8.75;;;4.85;;
19149;SDS011;9707;49.158;8.632;2023-04-25T11:58:21;7.60;;;4.53;;
19149;SDS011;9707;49.158;8.632;2023-04-25T12:00:46;9.15;;;4.50;;
19149;SDS011;9707;49.158;8.632;2023-04-25T12:03:12;6.35;;;4.18;;
19149;SDS011;9707;49.158;8.632;2023-04-25T12:05:37;10.63;;;4.70;;
19149;SDS011;9707;49.158;8.632;2023-04-25T12:08:14;9.20;;;5.05;;
19149;SDS011;9707;49.158;8.632;2023-04-25T12:10:42;7.88;;;4.85;;
19149;SDS011;9707;49.158;8.632;2023-04-25T12:13:25;11.80;;;5.35;;
19149;SDS011;9707;49.158;8.632;2023-04-25T12:15:53;7.32;;;4.15;;
19149;SDS011;9707;49.158;8.632;2023-04-25T12:18:20;9.90;;;5.15;;
19149;SDS011;9707;49.158;8.632;2023-04-25T12:20:48;12.65;;;4.80;;
19149;SDS011;9707;49.158;8.632;2023-04-25T12:23:14;9.50;;;5.28;;
19149;SDS011;9707;49.158;8.632;2023-04-25T12:25:42;12.40;;;5.63;;
19149;SDS011;9707;49.158;8.632;2023-04-25T12:33:19;9.85;;;5.15;;
19149;SDS011;9707;49.158;8.632;2023-04-25T12:35:45;10.60;;;4.35;;
19149;SDS011;9707;49.158;8.632;2023-04-25T12:38:11;8.35;;;4.93;;
19149;SDS011;9707;49.158;8.632;2023-04-25T12:40:36;5.22;;;3.90;;
19149;SDS011;9707;49.158;8.632;2023-04-25T12:43:01;6.75;;;4.30;;
19149;SDS011;9707;49.158;8.632;2023-04-25T12:45:26;8.35;;;4.43;;
19149;SDS011;9707;49.158;8.632;2023-04-25T12:47:52;7.75;;;4.10;;
19149;SDS011;9707;49.158;8.632;2023-04-25T12:50:17;8.60;;;4.40;;
19149;SDS011;9707;49.158;8.632;2023-04-25T12:52:42;7.93;;;3.83;;
19149;SDS011;9707;49.158;8.632;2023-04-25T12:55:07;7.35;;;4.10;;
19149;SDS011;9707;49.158;8.632;2023-04-25T12:57:33;10.15;;;4.90;;
19149;SDS011;9707;49.158;8.632;2023-04-25T12:59:58;13.00;;;5.57;;
19149;SDS011;9707;49.158;8.632;2023-04-25T13:02:23;10.77;;;5.22;;
19149;SDS011;9707;49.158;8.632;2023-04-25T13:04:48;6.55;;;4.43;;
19149;SDS011;9707;49.158;8.632;2023-04-25T13:07:14;8.18;;;5.22;;
19149;SDS011;9707;49.158;8.632;2023-04-25T13:09:40;10.57;;;4.65;;
19149;SDS011;9707;49.158;8.632;2023-04-25T13:12:05;6.93;;;4.65;;
19149;SDS011;9707;49.158;8.632;2023-04-25T13:14:31;11.68;;;4.90;;
19149;SDS011;9707;49.158;8.632;2023-04-25T13:16:56;10.07;;;4.88;;
19149;SDS011;9707;49.158;8.632;2023-04-25T13:19:21;8.13;;;4.65;;
19149;SDS011;9707;49.158;8.632;2023-04-25T13:21:46;6.13;;;4.20;;
19149;SDS011;9707;49.158;8.632;2023-04-25T13:24:12;7.53;;;4.22;;
19149;SDS011;9707;49.158;8.632;2023-04-25T13:26:37;7.47;;;4.45;;
19149;SDS011;9707;49.158;8.632;2023-04-25T13:29:02;11.85;;;4.80;;
19149;SDS011;9707;49.158;8.632;2023-04-25T13:31:28;9.43;;;4.85;;
19149;SDS011;9707;49.158;8.632;2023-04-25T13:33:54;10.88;;;4.20;;
19149;SDS011;9707;49.158;8.632;2023-04-25T13:36:19;7.90;;;3.50;;
19149;SDS011;9707;49.158;8.632;2023-04-25T13:38:44;8.77;;;3.60;;
19149;SDS011;9707;49.158;8.632;2023-04-25T13:41:12;9.32;;;5.30;;
19149;SDS011;9707;49.158;8.632;2023-04-25T13:43:42;8.80;;;4.38;;
19149;SDS011;9707;49.158;8.632;2023-04-25T13:46:07;8.57;;;4.68;;
19149;SDS011;9707;49.158;8.632;2023-04-25T13:48:33;8.18;;;3.67;;
19149;SDS011;9707;49.158;8.632;2023-04-25T13:50:58;4.75;;;3.40;;
19149;SDS011;9707;49.158;8.632;2023-04-25T13:53:23;6.32;;;3.30;;
19149;SDS011;9707;49.158;8.632;2023-04-25T13:55:49;7.15;;;3.80;;
19149;SDS011;9707;49.158;8.632;2023-04-25T13:58:14;7.30;;;3.55;;
19149;SDS011;9707;49.158;8.632;2023-04-25T14:00:40;5.68;;;3.65;;
19149;SDS011;9707;49.158;8.632;2023-04-25T14:03:08;5.95;;;3.38;;
19149;SDS011;9707;49.158;8.632;2023-04-25T14:05:34;5.93;;;3.40;;
19149;SDS011;9707;49.158;8.632;2023-04-25T14:08:07;7.43;;;3.60;;
19149;SDS011;9707;49.158;8.632;2023-04-25T14:10:34;4.88;;;3.10;;
19149;SDS011;9707;49.158;8.632;2023-04-25T14:13:00;6.22;;;3.20;;
19149;SDS011;9707;49.158;8.632;2023-04-25T14:15:26;3.15;;;2.50;;
19149;SDS011;9707;49.158;8.632;2023-04-25T14:17:51;5.32;;;2.47;;
19149;SDS011;9707;49.158;8.632;2023-04-25T14:20:16;4.30;;;2.28;;
19149;SDS011;9707;49.158;8.632;2023-04-25T14:22:45;3.85;;;2.25;;
19149;SDS011;9707;49.158;8.632;2023-04-25T14:25:10;5.72;;;2.42;;
19149;SDS011;9707;49.158;8.632;2023-04-25T14:27:36;4.55;;;2.45;;
19149;SDS011;9707;49.158;8.632;2023-04-25T14:30:01;4.43;;;2.60;;
19149;SDS011;9707;49.158;8.632;2023-04-25T14:32:27;7.00;;;2.95;;
19149;SDS011;9707;49.158;8.632;2023-04-25T14:34:52;4.95;;;3.08;;
19149;SDS011;9707;49.158;8.632;2023-04-25T14:37:17;3.53;;;3.15;;
19149;SDS011;9707;49.158;8.632;2023-04-25T14:39:42;4.38;;;2.88;;
19149;SDS011;9707;49.158;8.632;2023-04-25T14:42:08;4.30;;;2.78;;
19149;SDS011;9707;49.158;8.632;2023-04-25T14:44:33;5.75;;;3.00;;
19149;SDS011;9707;49.158;8.632;2023-04-25T14:46:58;7.15;;;3.00;;
19149;SDS011;9707;49.158;8.632;2023-04-25T14:49:23;4.13;;;2.35;;
19149;SDS011;9707;49.158;8.632;2023-04-25T14:51:49;3.25;;;2.47;;
19149;SDS011;9707;49.158;8.632;2023-04-25T14:54:14;7.30;;;3.38;;
19149;SDS011;9707;49.158;8.632;2023-04-25T14:56:40;3.78;;;2.72;;
19149;SDS011;9707;49.158;8.632;2023-04-25T14:59:05;4.35;;;2.90;;
19149;SDS011;9707;49.158;8.632;2023-04-25T15:01:31;4.43;;;2.63;;
19149;SDS011;9707;49.158;8.632;2023-04-25T15:03:57;4.82;;;2.80;;
19149;SDS011;9707;49.158;8.632;2023-04-25T15:06:22;3.60;;;2.97;;
19149;SDS011;9707;49.158;8.632;2023-04-25T15:08:47;6.28;;;3.28;;
19149;SDS011;9707;49.158;8.632;2023-04-25T15:11:13;6.32;;;2.85;;
19149;SDS011;9707;49.158;8.632;2023-04-25T15:13:38;3.85;;;2.33;;
19149;SDS011;9707;49.158;8.632;2023-04-25T15:16:03;3.30;;;2.60;;
19149;SDS011;9707;49.158;8.632;2023-04-25T15:18:29;5.47;;;3.08;;
19149;SDS011;9707;49.158;8.632;2023-04-25T15:20:54;6.13;;;3.33;;
19149;SDS011;9707;49.158;8.632;2023-04-25T15:23:20;5.53;;;3.60;;
19149;SDS011;9707;49.158;8.632;2023-04-25T15:25:46;6.25;;;3.13;;
19149;SDS011;9707;49.158;8.632;2023-04-25T15:28:12;4.82;;;2.75;;
19149;SDS011;9707;49.158;8.632;2023-04-25T15:30:39;4.28;;;2.38;;
19149;SDS011;9707;49.158;8.632;2023-04-25T15:33:05;5.72;;;2.90;;
19149;SDS011;9707;49.158;8.632;2023-04-25T15:35:30;4.47;;;2.17;;
19149;SDS011;9707;49.158;8.632;2023-04-25T15:37:56;6.03;;;2.70;;
19149;SDS011;9707;49.158;8.632;2023-04-25T15:40:21;4.40;;;3.10;;
19149;SDS011;9707;49.158;8.632;2023-04-25T15:42:50;5.25;;;3.10;;
19149;SDS011;9707;49.158;8.632;2023-04-25T15:45:16;4.40;;;2.88;;
19149;SDS011;9707;49.158;8.632;2023-04-25T15:47:44;4.95;;;3.03;;
19149;SDS011;9707;49.158;8.632;2023-04-25T15:50:10;6.85;;;3.05;;
19149;SDS011;9707;49.158;8.632;2023-04-25T15:52:36;4.72;;;2.97;;
19149;SDS011;9707;49.158;8.632;2023-04-25T15:55:02;6.25;;;3.17;;
19149;SDS011;9707;49.158;8.632;2023-04-25T15:57:34;6.93;;;2.67;;
19149;SDS011;9707;49.158;8.632;2023-04-25T16:00:01;4.82;;;3.00;;
19149;SDS011;9707;49.158;8.632;2023-04-25T16:02:34;7.22;;;3.20;;
19149;SDS011;9707;49.158;8.632;2023-04-25T16:05:00;6.65;;;3.13;;
19149;SDS011;9707;49.158;8.632;2023-04-25T16:07:25;7.25;;;3.13;;
19149;SDS011;9707;49.158;8.632;2023-04-25T16:09:51;7.72;;;3.15;;
19149;SDS011;9707;49.158;8.632;2023-04-25T16:12:16;8.27;;;3.13;;
19149;SDS011;9707;49.158;8.632;2023-04-25T16:14:41;5.63;;;3.00;;
19149;SDS011;9707;49.158;8.632;2023-04-25T16:17:07;5.50;;;3.20;;
19149;SDS011;9707;49.158;8.632;2023-04-25T16:19:32;5.57;;;3.22;;
19149;SDS011;9707;49.158;8.632;2023-04-25T16:21:57;7.95;;;4.30;;
19149;SDS011;9707;49.158;8.632;2023-04-25T16:24:22;9.35;;;4.78;;
19149;SDS011;9707;49.158;8.632;2023-04-25T16:26:48;7.25;;;4.60;;
19149;SDS011;9707;49.158;8.632;2023-04-25T16:29:13;7.53;;;4.28;;
19149;SDS011;9707;49.158;8.632;2023-04-25T16:31:40;5.68;;;4.38;;
19149;SDS011;9707;49.158;8.632;2023-04-25T16:34:06;7.57;;;4.43;;
19149;SDS011;9707;49.158;8.632;2023-04-25T16:36:31;10.00;;;4.65;;
19149;SDS011;9707;49.158;8.632;2023-04-25T16:38:57;9.00;;;4.90;;
19149;SDS011;9707;49.158;8.632;2023-04-25T16:41:24;9.13;;;5.82;;
19149;SDS011;9707;49.158;8.632;2023-04-25T16:43:50;8.63;;;5.25;;
19149;SDS011;9707;49.158;8.632;2023-04-25T16:46:16;10.80;;;5.15;;
19149;SDS011;9707;49.158;8.632;2023-04-25T16:48:43;7.28;;;4.53;;
19149;SDS011;9707;49.158;8.632;2023-04-25T16:51:09;9.45;;;5.63;;
19149;SDS011;9707;49.158;8.632;2023-04-25T16:53:34;5.32;;;3.58;;
19149;SDS011;9707;49.158;8.632;2023-04-25T16:55:59;6.10;;;4.22;;
19149;SDS011;9707;49.158;8.632;2023-04-25T16:58:25;8.18;;;4.50;;
19149;SDS011;9707;49.158;8.632;2023-04-25T17:00:52;5.15;;;3.75;;
19149;SDS011;9707;49.158;8.632;2023-04-25T17:03:17;7.95;;;4.30;;
19149;SDS011;9707;49.158;8.632;2023-04-25T17:05:43;5.40;;;4.03;;
19149;SDS011;9707;49.158;8.632;2023-04-25T17:08:08;6.78;;;3.92;;
19149;SDS011;9707;49.158;8.632;2023-04-25T17:10:33;8.57;;;4.47;;
19149;SDS011;9707;49.158;8.632;2023-04-25T17:12:58;7.30;;;4.20;;
19149;SDS011;9707;49.158;8.632;2023-04-25T17:15:24;5.30;;;3.75;;
19149;SDS011;9707;49.158;8.632;2023-04-25T17:17:49;5.55;;;3.60;;
19149;SDS011;9707;49.158;8.632;2023-04-25T17:20:14;7.60;;;4.10;;
19149;SDS011;9707;49.158;8.632;2023-04-25T17:22:40;4.70;;;3.42;;
19149;SDS011;9707;49.158;8.632;2023-04-25T17:25:05;5.25;;;3.92;;
19149;SDS011;9707;49.158;8.632;2023-04-25T17:27:33;6.20;;;4.45;;
19149;SDS011;9707;49.158;8.632;2023-04-25T17:29:58;5.35;;;3.55;;
19149;SDS011;9707;49.158;8.632;2023-04-25T17:32:24;5.07;;;3.40;;
19149;SDS011;9707;49.158;8.632;2023-04-25T17:34:50;7.13;;;3.55;;
19149;SDS011;9707;49.158;8.632;2023-04-25T17:37:16;5.50;;;3.47;;
19149;SDS011;9707;49.158;8.632;2023-04-25T17:39:42;5.55;;;3.10;;
19149;SDS011;9707;49.158;8.632;2023-04-25T17:42:08;8.20;;;4.00;;
19149;SDS011;9707;49.158;8.632;2023-04-25T17:44:34;5.95;;;4.03;;
19149;SDS011;9707;49.158;8.632;2023-04-25T17:47:00;7.20;;;3.97;;
19149;SDS011;9707;49.158;8.632;2023-04-25T17:49:26;4.85;;;3.50;;
19149;SDS011;9707;49.158;8.632;2023-04-25T17:51:51;5.68;;;3.80;;
19149;SDS011;9707;49.158;8.632;2023-04-25T17:54:16;8.15;;;3.92;;
19149;SDS011;9707;49.158;8.632;2023-04-25T17:56:42;6.20;;;3.80;;
19149;SDS011;9707;49.158;8.632;2023-04-25T17:59:09;6.28;;;4.18;;
19149;SDS011;9707;49.158;8.632;2023-04-25T18:01:34;6.35;;;4.28;;
19149;SDS011;9707;49.158;8.632;2023-04-25T18:04:00;5.57;;;4.28;;
19149;SDS011;9707;49.158;8.632;2023-04-25T18:06:27;5.40;;;3.75;;
19149;SDS011;9707;49.158;8.632;2023-04-25T18:08:53;5.68;;;3.55;;
19149;SDS011;9707;49.158;8.632;2023-04-25T18:11:18;6.30;;;4.25;;
19149;SDS011;9707;49.158;8.632;2023-04-25T18:13:44;5.55;;;3.70;;
19149;SDS011;9707;49.158;8.632;2023-04-25T18:16:09;5.43;;;4.50;;
19149;SDS011;9707;49.158;8.632;2023-04-25T18:18:35;5.45;;;3.78;;
19149;SDS011;9707;49.158;8.632;2023-04-25T18:21:01;5.38;;;3.97;;
19149;SDS011;9707;49.158;8.632;2023-04-25T18:23:29;7.50;;;4.18;;
19149;SDS011;9707;49.158;8.632;2023-04-25T18:25:56;6.63;;;3.90;;
19149;SDS011;9707;49.158;8.632;2023-04-25T18:28:21;4.57;;;3.55;;
19149;SDS011;9707;49.158;8.632;2023-04-25T18:30:46;6.72;;;4.30;;
19149;SDS011;9707;49.158;8.632;2023-04-25T18:33:14;5.32;;;3.67;;
19149;SDS011;9707;49.158;8.632;2023-04-25T18:35:39;4.90;;;4.00;;
19149;SDS011;9707;49.158;8.632;2023-04-25T18:38:04;6.45;;;3.33;;
19149;SDS011;9707;49.158;8.632;2023-04-25T18:40:29;4.15;;;3.33;;
19149;SDS011;9707;49.158;8.632;2023-04-25T18:42:55;7.82;;;3.90;;
19149;SDS011;9707;49.158;8.632;2023-04-25T18:45:21;5.53;;;4.20;;
19149;SDS011;9707;49.158;8.632;2023-04-25T18:47:46;8.68;;;4.28;;
19149;SDS011;9707;49.158;8.632;2023-04-25T18:50:11;8.15;;;5.05;;
19149;SDS011;9707;49.158;8.632;2023-04-25T18:52:37;8.95;;;5.50;;
19149;SDS011;9707;49.158;8.632;2023-04-25T18:55:03;9.82;;;4.57;;
19149;SDS011;9707;49.158;8.632;2023-04-25T18:57:28;7.05;;;4.38;;
19149;SDS011;9707;49.158;8.632;2023-04-25T18:59:57;5.68;;;4.07;;
19149;SDS011;9707;49.158;8.632;2023-04-25T19:02:22;7.18;;;4.38;;
19149;SDS011;9707;49.158;8.632;2023-04-25T19:04:48;7.20;;;4.65;;
19149;SDS011;9707;49.158;8.632;2023-04-25T19:07:13;8.45;;;4.75;;
19149;SDS011;9707;49.158;8.632;2023-04-25T19:09:39;6.28;;;4.53;;
19149;SDS011;9707;49.158;8.632;2023-04-25T19:12:04;7.95;;;5.30;;
19149;SDS011;9707;49.158;8.632;2023-04-25T19:14:30;7.00;;;4.82;;
19149;SDS011;9707;49.158;8.632;2023-04-25T19:16:56;7.53;;;4.68;;
19149;SDS011;9707;49.158;8.632;2023-04-25T19:19:23;9.98;;;5.13;;
19149;SDS011;9707;49.158;8.632;2023-04-25T19:21:48;7.00;;;5.10;;
19149;SDS011;9707;49.158;8.632;2023-04-25T19:24:14;11.07;;;5.68;;
19149;SDS011;9707;49.158;8.632;2023-04-25T19:26:40;7.63;;;6.03;;
19149;SDS011;9707;49.158;8.632;2023-04-25T19:31:33;9.90;;;5.60;;
19149;SDS011;9707;49.158;8.632;2023-04-25T19:33:59;11.15;;;5.75;;
19149;SDS011;9707;49.158;8.632;2023-04-25T19:36:24;10.02;;;6.50;;
19149;SDS011;9707;49.158;8.632;2023-04-25T19:38:51;9.13;;;5.40;;
19149;SDS011;9707;49.158;8.632;2023-04-25T19:41:17;8.20;;;6.20;;
19149;SDS011;9707;49.158;8.632;2023-04-25T19:43:42;13.15;;;7.35;;
19149;SDS011;9707;49.158;8.632;2023-04-25T19:46:07;11.50;;;6.60;;
19149;SDS011;9707;49.158;8.632;2023-04-25T19:48:33;10.10;;;7.45;;
19149;SDS011;9707;49.158;8.632;2023-04-25T19:50:58;8.60;;;6.97;;
19149;SDS011;9707;49.158;8.632;2023-04-25T19:53:24;10.63;;;7.22;;
19149;SDS011;9707;49.158;8.632;2023-04-25T19:55:49;7.82;;;5.35;;
19149;SDS011;9707;49.158;8.632;2023-04-25T19:58:15;7.65;;;5.97;;
19149;SDS011;9707;49.158;8.632;2023-04-25T20:00:40;9.85;;;6.45;;
19149;SDS011;9707;49.158;8.632;2023-04-25T20:03:06;9.63;;;7.57;;
19149;SDS011;9707;49.158;8.632;2023-04-25T20:05:31;10.45;;;7.03;;
19149;SDS011;9707;49.158;8.632;2023-04-25T20:07:56;11.68;;;7.18;;
19149;SDS011;9707;49.158;8.632;2023-04-25T20:10:22;9.63;;;6.75;;
19149;SDS011;9707;49.158;8.632;2023-04-25T20:12:47;9.77;;;7.13;;
19149;SDS011;9707;49.158;8.632;2023-04-25T20:15:13;10.98;;;7.07;;
19149;SDS011;9707;49.158;8.632;2023-04-25T20:17:41;9.93;;;7.00;;
19149;SDS011;9707;49.158;8.632;2023-04-25T20:20:06;10.18;;;5.90;;
19149;SDS011;9707;49.158;8.632;2023-04-25T20:22:33;7.38;;;6.00;;
19149;SDS011;9707;49.158;8.632;2023-04-25T20:25:04;9.93;;;6.82;;
19149;SDS011;9707;49.158;8.632;2023-04-25T20:27:33;7.97;;;6.00;;
19149;SDS011;9707;49.158;8.632;2023-04-25T20:30:01;8.90;;;6.63;;
19149;SDS011;9707;49.158;8.632;2023-04-25T20:32:31;8.85;;;6.68;;
19149;SDS011;9707;49.158;8.632;2023-04-25T20:34:56;9.68;;;7.88;;
19149;SDS011;9707;49.158;8.632;2023-04-25T20:37:22;10.77;;;7.25;;
19149;SDS011;9707;49.158;8.632;2023-04-25T20:39:47;13.15;;;7.90;;
19149;SDS011;9707;49.158;8.632;2023-04-25T20:42:12;14.82;;;9.52;;
19149;SDS011;9707;49.158;8.632;2023-04-25T20:44:37;15.48;;;9.43;;
19149;SDS011;9707;49.158;8.632;2023-04-25T20:47:04;11.60;;;7.82;;
19149;SDS011;9707;49.158;8.632;2023-04-25T20:49:30;11.50;;;8.18;;
19149;SDS011;9707;49.158;8.632;2023-04-25T20:51:56;9.00;;;6.93;;
19149;SDS011;9707;49.158;8.632;2023-04-25T20:54:21;12.05;;;6.95;;
19149;SDS011;9707;49.158;8.632;2023-04-25T20:56:47;8.77;;;5.78;;
19149;SDS011;9707;49.158;8.632;2023-04-25T20:59:12;12.60;;;7.15;;
19149;SDS011;9707;49.158;8.632;2023-04-25T21:01:38;9.20;;;6.25;;
19149;SDS011;9707;49.158;8.632;2023-04-25T21:04:03;7.88;;;5.75;;
19149;SDS011;9707;49.158;8.632;2023-04-25T21:06:30;7.13;;;5.85;;
19149;SDS011;9707;49.158;8.632;2023-04-25T21:08:55;6.22;;;4.70;;
19149;SDS011;9707;49.158;8.632;2023-04-25T21:11:20;9.48;;;6.30;;
19149;SDS011;9707;49.158;8.632;2023-04-25T21:13:47;7.00;;;6.20;;
19149;SDS011;9707;49.158;8.632;2023-04-25T21:16:12;7.78;;;5.82;;
19149;SDS011;9707;49.158;8.632;2023-04-25T21:18:37;8.98;;;7.18;;
19149;SDS011;9707;49.158;8.632;2023-04-25T21:21:02;8.68;;;5.70;;
19149;SDS011;9707;49.158;8.632;2023-04-25T21:23:29;6.78;;;5.60;;